sensor_id;sensor_type;location;lat;lon;timestamp;P1;durP1;ratioP1;P2;durP2;ratioP2
12302;SDS011;6214;48.012;7.862;2022-10-16T00:01:16;12.70;;;1.00;;
12302;SDS011;6214;48.012;7.862;2022-10-16T00:03:44;11.52;;;1.05;;
12302;SDS011;6214;48.012;7.862;2022-10-16T00:06:12;10.85;;;0.80;;
12302;SDS011;6214;48.012;7.862;2022-10-16T00:08:39;11.68;;;1.20;;
12302;SDS011;6214;48.012;7.862;2022-10-16T00:11:08;10.90;;;1.30;;
12302;SDS011;6214;48.012;7.862;2022-10-16T00:13:40;11.68;;;1.60;;
12302;SDS011;6214;48.012;7.862;2022-10-16T00:16:09;12.05;;;1.83;;
12302;SDS011;6214;48.012;7.862;2022-10-16T00:18:37;13.80;;;1.80;;
12302;SDS011;6214;48.012;7.862;2022-10-16T00:21:05;12.40;;;1.90;;
12302;SDS011;6214;48.012;7.862;2022-10-16T00:23:34;12.35;;;1.60;;
12302;SDS011;6214;48.012;7.862;2022-10-16T00:26:03;11.93;;;1.40;;
12302;SDS011;6214;48.012;7.862;2022-10-16T00:28:31;11.73;;;1.60;;
12302;SDS011;6214;48.012;7.862;2022-10-16T00:30:58;13.45;;;1.70;;
12302;SDS011;6214;48.012;7.862;2022-10-16T00:33:28;12.55;;;1.60;;
12302;SDS011;6214;48.012;7.862;2022-10-16T00:35:57;12.10;;;1.60;;
12302;SDS011;6214;48.012;7.862;2022-10-16T00:38:24;12.00;;;1.50;;
12302;SDS011;6214;48.012;7.862;2022-10-16T00:40:51;11.82;;;1.45;;
12302;SDS011;6214;48.012;7.862;2022-10-16T00:46:38;11.18;;;1.00;;
12302;SDS011;6214;48.012;7.862;2022-10-16T00:49:09;11.80;;;1.10;;
12302;SDS011;6214;48.012;7.862;2022-10-16T00:51:45;11.38;;;0.90;;
12302;SDS011;6214;48.012;7.862;2022-10-16T00:54:19;14.02;;;1.05;;
12302;SDS011;6214;48.012;7.862;2022-10-16T00:56:49;11.30;;;0.90;;
12302;SDS011;6214;48.012;7.862;2022-10-16T00:59:24;10.60;;;0.80;;
12302;SDS011;6214;48.012;7.862;2022-10-16T01:01:56;12.07;;;1.27;;
12302;SDS011;6214;48.012;7.862;2022-10-16T01:04:24;12.52;;;0.70;;
12302;SDS011;6214;48.012;7.862;2022-10-16T01:15:11;11.85;;;1.00;;
12302;SDS011;6214;48.012;7.862;2022-10-16T01:20:42;12.60;;;1.00;;
12302;SDS011;6214;48.012;7.862;2022-10-16T01:28:53;12.30;;;1.10;;
12302;SDS011;6214;48.012;7.862;2022-10-16T01:31:25;11.80;;;1.00;;
12302;SDS011;6214;48.012;7.862;2022-10-16T01:34:05;13.90;;;1.00;;
12302;SDS011;6214;48.012;7.862;2022-10-16T01:36:39;12.50;;;1.00;;
12302;SDS011;6214;48.012;7.862;2022-10-16T01:39:11;11.45;;;1.10;;
12302;SDS011;6214;48.012;7.862;2022-10-16T01:41:45;10.35;;;0.85;;
12302;SDS011;6214;48.012;7.862;2022-10-16T01:44:28;12.98;;;1.40;;
12302;SDS011;6214;48.012;7.862;2022-10-16T01:46:57;11.88;;;1.38;;
12302;SDS011;6214;48.012;7.862;2022-10-16T01:49:28;11.07;;;1.00;;
12302;SDS011;6214;48.012;7.862;2022-10-16T01:51:59;11.30;;;1.00;;
12302;SDS011;6214;48.012;7.862;2022-10-16T01:54:32;11.20;;;1.25;;
12302;SDS011;6214;48.012;7.862;2022-10-16T01:57:01;12.20;;;1.00;;
12302;SDS011;6214;48.012;7.862;2022-10-16T01:59:32;13.73;;;1.20;;
12302;SDS011;6214;48.012;7.862;2022-10-16T02:02:04;11.10;;;1.00;;
12302;SDS011;6214;48.012;7.862;2022-10-16T02:04:36;14.27;;;1.10;;
12302;SDS011;6214;48.012;7.862;2022-10-16T02:07:06;12.10;;;1.08;;
12302;SDS011;6214;48.012;7.862;2022-10-16T02:09:34;13.30;;;1.17;;
12302;SDS011;6214;48.012;7.862;2022-10-16T02:12:10;12.47;;;1.20;;
12302;SDS011;6214;48.012;7.862;2022-10-16T02:14:50;11.70;;;1.17;;
12302;SDS011;6214;48.012;7.862;2022-10-16T02:17:18;12.40;;;1.20;;
12302;SDS011;6214;48.012;7.862;2022-10-16T02:19:46;13.20;;;1.10;;
12302;SDS011;6214;48.012;7.862;2022-10-16T02:22:15;11.75;;;1.20;;
12302;SDS011;6214;48.012;7.862;2022-10-16T02:24:53;12.73;;;1.00;;
12302;SDS011;6214;48.012;7.862;2022-10-16T02:29:55;14.23;;;1.15;;
12302;SDS011;6214;48.012;7.862;2022-10-16T02:32:28;11.27;;;1.10;;
12302;SDS011;6214;48.012;7.862;2022-10-16T02:34:58;11.57;;;1.20;;
12302;SDS011;6214;48.012;7.862;2022-10-16T02:37:26;14.10;;;1.20;;
12302;SDS011;6214;48.012;7.862;2022-10-16T02:39:55;13.57;;;1.30;;
12302;SDS011;6214;48.012;7.862;2022-10-16T02:42:33;11.90;;;1.20;;
12302;SDS011;6214;48.012;7.862;2022-10-16T02:45:02;11.50;;;1.00;;
12302;SDS011;6214;48.012;7.862;2022-10-16T02:47:30;11.77;;;1.10;;
12302;SDS011;6214;48.012;7.862;2022-10-16T02:49:57;12.50;;;1.20;;
12302;SDS011;6214;48.012;7.862;2022-10-16T02:52:24;12.70;;;1.20;;
12302;SDS011;6214;48.012;7.862;2022-10-16T02:54:51;12.10;;;1.10;;
12302;SDS011;6214;48.012;7.862;2022-10-16T02:57:18;12.18;;;1.20;;
12302;SDS011;6214;48.012;7.862;2022-10-16T02:59:45;11.20;;;1.10;;
12302;SDS011;6214;48.012;7.862;2022-10-16T03:02:12;11.98;;;1.10;;
12302;SDS011;6214;48.012;7.862;2022-10-16T03:04:39;11.45;;;1.13;;
12302;SDS011;6214;48.012;7.862;2022-10-16T03:07:06;11.88;;;1.52;;
12302;SDS011;6214;48.012;7.862;2022-10-16T03:09:33;12.40;;;1.20;;
12302;SDS011;6214;48.012;7.862;2022-10-16T03:12:00;12.13;;;1.17;;
12302;SDS011;6214;48.012;7.862;2022-10-16T03:14:27;12.60;;;1.10;;
12302;SDS011;6214;48.012;7.862;2022-10-16T03:16:54;11.25;;;1.20;;
12302;SDS011;6214;48.012;7.862;2022-10-16T03:19:21;11.18;;;1.30;;
12302;SDS011;6214;48.012;7.862;2022-10-16T03:21:49;13.20;;;1.20;;
12302;SDS011;6214;48.012;7.862;2022-10-16T03:24:15;11.65;;;1.30;;
12302;SDS011;6214;48.012;7.862;2022-10-16T03:26:42;11.00;;;1.25;;
12302;SDS011;6214;48.012;7.862;2022-10-16T03:29:09;11.60;;;1.20;;
12302;SDS011;6214;48.012;7.862;2022-10-16T03:31:36;14.52;;;1.40;;
12302;SDS011;6214;48.012;7.862;2022-10-16T03:34:03;12.25;;;1.10;;
12302;SDS011;6214;48.012;7.862;2022-10-16T03:36:30;12.80;;;1.20;;
12302;SDS011;6214;48.012;7.862;2022-10-16T03:38:57;12.20;;;1.00;;
12302;SDS011;6214;48.012;7.862;2022-10-16T03:41:24;12.77;;;1.20;;
12302;SDS011;6214;48.012;7.862;2022-10-16T03:43:51;13.50;;;1.00;;
12302;SDS011;6214;48.012;7.862;2022-10-16T03:46:18;12.20;;;1.38;;
12302;SDS011;6214;48.012;7.862;2022-10-16T03:48:45;12.02;;;1.00;;
12302;SDS011;6214;48.012;7.862;2022-10-16T03:51:12;12.03;;;1.07;;
12302;SDS011;6214;48.012;7.862;2022-10-16T03:53:39;10.27;;;0.82;;
12302;SDS011;6214;48.012;7.862;2022-10-16T03:56:06;11.23;;;1.27;;
12302;SDS011;6214;48.012;7.862;2022-10-16T03:58:33;11.05;;;1.10;;
12302;SDS011;6214;48.012;7.862;2022-10-16T04:01:00;12.00;;;1.10;;
12302;SDS011;6214;48.012;7.862;2022-10-16T04:03:27;14.70;;;1.38;;
12302;SDS011;6214;48.012;7.862;2022-10-16T04:05:54;10.98;;;1.00;;
12302;SDS011;6214;48.012;7.862;2022-10-16T04:08:21;13.50;;;1.40;;
12302;SDS011;6214;48.012;7.862;2022-10-16T04:10:49;12.93;;;1.20;;
12302;SDS011;6214;48.012;7.862;2022-10-16T04:13:16;13.60;;;1.30;;
12302;SDS011;6214;48.012;7.862;2022-10-16T04:15:44;10.90;;;1.00;;
12302;SDS011;6214;48.012;7.862;2022-10-16T04:18:11;13.00;;;1.20;;
12302;SDS011;6214;48.012;7.862;2022-10-16T04:20:38;15.30;;;1.50;;
12302;SDS011;6214;48.012;7.862;2022-10-16T04:23:05;14.02;;;1.85;;
12302;SDS011;6214;48.012;7.862;2022-10-16T04:25:32;12.00;;;1.70;;
12302;SDS011;6214;48.012;7.862;2022-10-16T04:27:59;12.07;;;1.70;;
12302;SDS011;6214;48.012;7.862;2022-10-16T04:30:26;11.95;;;1.40;;
12302;SDS011;6214;48.012;7.862;2022-10-16T04:32:53;12.45;;;1.60;;
12302;SDS011;6214;48.012;7.862;2022-10-16T04:35:20;12.00;;;1.38;;
12302;SDS011;6214;48.012;7.862;2022-10-16T04:37:48;12.30;;;1.20;;
12302;SDS011;6214;48.012;7.862;2022-10-16T04:40:16;12.80;;;1.40;;
12302;SDS011;6214;48.012;7.862;2022-10-16T04:42:43;11.07;;;1.30;;
12302;SDS011;6214;48.012;7.862;2022-10-16T04:45:10;11.98;;;1.10;;
12302;SDS011;6214;48.012;7.862;2022-10-16T04:47:42;10.90;;;1.30;;
12302;SDS011;6214;48.012;7.862;2022-10-16T04:50:09;14.38;;;1.38;;
12302;SDS011;6214;48.012;7.862;2022-10-16T04:52:37;12.38;;;1.15;;
12302;SDS011;6214;48.012;7.862;2022-10-16T04:55:04;13.82;;;1.40;;
12302;SDS011;6214;48.012;7.862;2022-10-16T04:57:31;11.90;;;1.10;;
12302;SDS011;6214;48.012;7.862;2022-10-16T04:59:59;12.83;;;1.13;;
12302;SDS011;6214;48.012;7.862;2022-10-16T05:02:27;11.18;;;1.15;;
12302;SDS011;6214;48.012;7.862;2022-10-16T05:04:54;12.65;;;1.30;;
12302;SDS011;6214;48.012;7.862;2022-10-16T05:07:21;12.35;;;1.20;;
12302;SDS011;6214;48.012;7.862;2022-10-16T05:09:48;13.35;;;1.75;;
12302;SDS011;6214;48.012;7.862;2022-10-16T05:12:15;12.70;;;1.38;;
12302;SDS011;6214;48.012;7.862;2022-10-16T05:14:42;11.95;;;1.23;;
12302;SDS011;6214;48.012;7.862;2022-10-16T05:17:08;12.83;;;1.50;;
12302;SDS011;6214;48.012;7.862;2022-10-16T05:19:35;11.80;;;1.20;;
12302;SDS011;6214;48.012;7.862;2022-10-16T05:22:03;12.35;;;1.50;;
12302;SDS011;6214;48.012;7.862;2022-10-16T05:24:30;11.70;;;1.40;;
12302;SDS011;6214;48.012;7.862;2022-10-16T05:26:57;11.30;;;1.40;;
12302;SDS011;6214;48.012;7.862;2022-10-16T05:29:24;12.02;;;1.40;;
12302;SDS011;6214;48.012;7.862;2022-10-16T05:31:52;11.65;;;1.17;;
12302;SDS011;6214;48.012;7.862;2022-10-16T05:34:19;12.10;;;1.20;;
12302;SDS011;6214;48.012;7.862;2022-10-16T05:36:47;13.10;;;1.73;;
12302;SDS011;6214;48.012;7.862;2022-10-16T05:39:14;12.70;;;1.30;;
12302;SDS011;6214;48.012;7.862;2022-10-16T05:41:42;12.00;;;1.30;;
12302;SDS011;6214;48.012;7.862;2022-10-16T05:44:10;10.90;;;1.20;;
12302;SDS011;6214;48.012;7.862;2022-10-16T05:46:37;12.50;;;1.40;;
12302;SDS011;6214;48.012;7.862;2022-10-16T05:49:04;11.50;;;1.38;;
12302;SDS011;6214;48.012;7.862;2022-10-16T05:51:31;11.55;;;1.40;;
12302;SDS011;6214;48.012;7.862;2022-10-16T05:53:58;13.50;;;1.30;;
12302;SDS011;6214;48.012;7.862;2022-10-16T05:56:25;13.50;;;1.70;;
12302;SDS011;6214;48.012;7.862;2022-10-16T05:58:52;13.07;;;1.50;;
12302;SDS011;6214;48.012;7.862;2022-10-16T06:01:19;12.70;;;1.30;;
12302;SDS011;6214;48.012;7.862;2022-10-16T06:03:51;12.35;;;1.20;;
12302;SDS011;6214;48.012;7.862;2022-10-16T06:06:19;13.50;;;1.60;;
12302;SDS011;6214;48.012;7.862;2022-10-16T06:08:49;12.18;;;1.30;;
12302;SDS011;6214;48.012;7.862;2022-10-16T06:11:20;10.70;;;1.20;;
12302;SDS011;6214;48.012;7.862;2022-10-16T06:13:55;12.18;;;1.35;;
12302;SDS011;6214;48.012;7.862;2022-10-16T06:16:24;12.52;;;1.40;;
12302;SDS011;6214;48.012;7.862;2022-10-16T06:18:52;12.10;;;1.20;;
12302;SDS011;6214;48.012;7.862;2022-10-16T06:21:21;13.77;;;1.50;;
12302;SDS011;6214;48.012;7.862;2022-10-16T06:23:51;15.30;;;1.50;;
12302;SDS011;6214;48.012;7.862;2022-10-16T06:26:20;12.25;;;1.40;;
12302;SDS011;6214;48.012;7.862;2022-10-16T06:28:49;12.20;;;1.30;;
12302;SDS011;6214;48.012;7.862;2022-10-16T06:31:16;12.02;;;1.40;;
12302;SDS011;6214;48.012;7.862;2022-10-16T06:33:44;10.90;;;1.10;;
12302;SDS011;6214;48.012;7.862;2022-10-16T06:36:13;13.98;;;1.40;;
12302;SDS011;6214;48.012;7.862;2022-10-16T06:38:42;12.50;;;1.30;;
12302;SDS011;6214;48.012;7.862;2022-10-16T06:41:11;11.45;;;1.00;;
12302;SDS011;6214;48.012;7.862;2022-10-16T06:43:41;10.85;;;1.10;;
12302;SDS011;6214;48.012;7.862;2022-10-16T06:46:09;13.80;;;1.30;;
12302;SDS011;6214;48.012;7.862;2022-10-16T06:48:37;12.02;;;1.10;;
12302;SDS011;6214;48.012;7.862;2022-10-16T06:51:11;12.30;;;1.17;;
12302;SDS011;6214;48.012;7.862;2022-10-16T06:53:43;12.40;;;1.20;;
12302;SDS011;6214;48.012;7.862;2022-10-16T06:56:31;14.55;;;1.40;;
12302;SDS011;6214;48.012;7.862;2022-10-16T06:58:59;12.57;;;1.40;;
12302;SDS011;6214;48.012;7.862;2022-10-16T07:01:26;11.52;;;1.50;;
12302;SDS011;6214;48.012;7.862;2022-10-16T07:03:53;11.90;;;1.70;;
12302;SDS011;6214;48.012;7.862;2022-10-16T07:06:21;12.68;;;1.77;;
12302;SDS011;6214;48.012;7.862;2022-10-16T07:08:50;13.20;;;1.60;;
12302;SDS011;6214;48.012;7.862;2022-10-16T07:11:18;12.75;;;1.50;;
12302;SDS011;6214;48.012;7.862;2022-10-16T07:13:47;12.07;;;1.92;;
12302;SDS011;6214;48.012;7.862;2022-10-16T07:16:28;13.18;;;1.70;;
12302;SDS011;6214;48.012;7.862;2022-10-16T07:18:57;12.80;;;1.60;;
12302;SDS011;6214;48.012;7.862;2022-10-16T07:21:27;12.80;;;1.70;;
12302;SDS011;6214;48.012;7.862;2022-10-16T07:24:01;12.10;;;1.80;;
12302;SDS011;6214;48.012;7.862;2022-10-16T07:26:30;13.60;;;1.80;;
12302;SDS011;6214;48.012;7.862;2022-10-16T07:28:59;12.05;;;1.70;;
12302;SDS011;6214;48.012;7.862;2022-10-16T07:31:27;12.35;;;1.70;;
12302;SDS011;6214;48.012;7.862;2022-10-16T07:33:54;12.68;;;1.88;;
12302;SDS011;6214;48.012;7.862;2022-10-16T07:36:21;14.32;;;1.90;;
12302;SDS011;6214;48.012;7.862;2022-10-16T07:38:48;11.70;;;1.70;;
12302;SDS011;6214;48.012;7.862;2022-10-16T07:41:20;11.50;;;1.63;;
12302;SDS011;6214;48.012;7.862;2022-10-16T07:43:48;13.20;;;1.80;;
12302;SDS011;6214;48.012;7.862;2022-10-16T07:46:17;11.77;;;1.70;;
12302;SDS011;6214;48.012;7.862;2022-10-16T07:48:45;13.48;;;1.80;;
12302;SDS011;6214;48.012;7.862;2022-10-16T07:51:15;12.45;;;2.10;;
12302;SDS011;6214;48.012;7.862;2022-10-16T07:53:44;12.30;;;1.80;;
12302;SDS011;6214;48.012;7.862;2022-10-16T07:56:11;12.02;;;1.83;;
12302;SDS011;6214;48.012;7.862;2022-10-16T07:58:39;12.15;;;1.50;;
12302;SDS011;6214;48.012;7.862;2022-10-16T08:01:07;12.98;;;1.60;;
12302;SDS011;6214;48.012;7.862;2022-10-16T08:03:35;13.60;;;1.45;;
12302;SDS011;6214;48.012;7.862;2022-10-16T08:06:03;12.50;;;1.02;;
12302;SDS011;6214;48.012;7.862;2022-10-16T08:08:31;14.20;;;1.30;;
12302;SDS011;6214;48.012;7.862;2022-10-16T08:10:58;13.88;;;1.20;;
12302;SDS011;6214;48.012;7.862;2022-10-16T08:13:25;12.90;;;1.27;;
12302;SDS011;6214;48.012;7.862;2022-10-16T08:15:53;13.85;;;1.30;;
12302;SDS011;6214;48.012;7.862;2022-10-16T08:18:20;14.40;;;1.20;;
12302;SDS011;6214;48.012;7.862;2022-10-16T08:20:54;11.90;;;1.10;;
12302;SDS011;6214;48.012;7.862;2022-10-16T08:23:26;13.10;;;1.20;;
12302;SDS011;6214;48.012;7.862;2022-10-16T08:25:54;12.10;;;1.10;;
12302;SDS011;6214;48.012;7.862;2022-10-16T08:28:22;13.15;;;1.38;;
12302;SDS011;6214;48.012;7.862;2022-10-16T08:30:49;11.10;;;1.02;;
12302;SDS011;6214;48.012;7.862;2022-10-16T08:33:16;12.15;;;1.20;;
12302;SDS011;6214;48.012;7.862;2022-10-16T08:35:50;12.48;;;1.10;;
12302;SDS011;6214;48.012;7.862;2022-10-16T08:38:17;13.30;;;1.20;;
12302;SDS011;6214;48.012;7.862;2022-10-16T08:40:44;11.90;;;1.10;;
12302;SDS011;6214;48.012;7.862;2022-10-16T08:48:54;11.48;;;1.10;;
12302;SDS011;6214;48.012;7.862;2022-10-16T08:51:32;11.70;;;1.20;;
12302;SDS011;6214;48.012;7.862;2022-10-16T08:54:06;11.90;;;1.15;;
12302;SDS011;6214;48.012;7.862;2022-10-16T08:56:49;12.60;;;1.02;;
12302;SDS011;6214;48.012;7.862;2022-10-16T08:59:16;12.20;;;1.10;;
12302;SDS011;6214;48.012;7.862;2022-10-16T09:01:45;12.57;;;1.00;;
12302;SDS011;6214;48.012;7.862;2022-10-16T09:07:32;11.60;;;1.10;;
12302;SDS011;6214;48.012;7.862;2022-10-16T09:10:34;12.88;;;1.40;;
12302;SDS011;6214;48.012;7.862;2022-10-16T09:13:06;11.75;;;1.30;;
12302;SDS011;6214;48.012;7.862;2022-10-16T09:15:47;12.35;;;1.20;;
12302;SDS011;6214;48.012;7.862;2022-10-16T09:18:41;14.27;;;1.20;;
12302;SDS011;6214;48.012;7.862;2022-10-16T09:21:32;12.88;;;1.10;;
12302;SDS011;6214;48.012;7.862;2022-10-16T09:24:23;14.73;;;1.20;;
12302;SDS011;6214;48.012;7.862;2022-10-16T09:26:54;14.10;;;1.40;;
12302;SDS011;6214;48.012;7.862;2022-10-16T09:29:21;11.93;;;1.02;;
12302;SDS011;6214;48.012;7.862;2022-10-16T09:31:52;13.02;;;1.55;;
12302;SDS011;6214;48.012;7.862;2022-10-16T09:36:59;12.37;;;1.20;;
12302;SDS011;6214;48.012;7.862;2022-10-16T09:39:29;12.10;;;1.20;;
12302;SDS011;6214;48.012;7.862;2022-10-16T09:41:56;11.77;;;1.10;;
12302;SDS011;6214;48.012;7.862;2022-10-16T09:44:28;11.60;;;1.10;;
12302;SDS011;6214;48.012;7.862;2022-10-16T09:49:50;11.70;;;1.30;;
12302;SDS011;6214;48.012;7.862;2022-10-16T09:52:18;11.10;;;1.08;;
12302;SDS011;6214;48.012;7.862;2022-10-16T09:55:28;11.30;;;1.10;;
12302;SDS011;6214;48.012;7.862;2022-10-16T09:57:49;11.70;;;1.23;;
12302;SDS011;6214;48.012;7.862;2022-10-16T10:00:17;11.40;;;1.00;;
12302;SDS011;6214;48.012;7.862;2022-10-16T10:02:45;11.48;;;1.00;;
12302;SDS011;6214;48.012;7.862;2022-10-16T10:05:23;11.50;;;1.00;;
12302;SDS011;6214;48.012;7.862;2022-10-16T10:07:54;13.80;;;1.30;;
12302;SDS011;6214;48.012;7.862;2022-10-16T10:10:29;11.23;;;1.10;;
12302;SDS011;6214;48.012;7.862;2022-10-16T10:12:58;11.40;;;1.20;;
12302;SDS011;6214;48.012;7.862;2022-10-16T10:15:25;11.50;;;1.00;;
12302;SDS011;6214;48.012;7.862;2022-10-16T10:17:59;13.32;;;1.35;;
12302;SDS011;6214;48.012;7.862;2022-10-16T10:23:01;11.40;;;1.20;;
12302;SDS011;6214;48.012;7.862;2022-10-16T10:31:34;11.38;;;1.08;;
12302;SDS011;6214;48.012;7.862;2022-10-16T10:39:49;11.60;;;1.10;;
12302;SDS011;6214;48.012;7.862;2022-10-16T10:42:46;11.45;;;1.20;;
12302;SDS011;6214;48.012;7.862;2022-10-16T10:48:17;11.30;;;1.20;;
12302;SDS011;6214;48.012;7.862;2022-10-16T10:51:10;11.10;;;1.02;;
12302;SDS011;6214;48.012;7.862;2022-10-16T10:59:30;11.50;;;1.10;;
12302;SDS011;6214;48.012;7.862;2022-10-16T11:02:38;11.23;;;1.20;;
12302;SDS011;6214;48.012;7.862;2022-10-16T11:10:21;11.30;;;1.20;;
12302;SDS011;6214;48.012;7.862;2022-10-16T11:12:52;12.07;;;1.00;;
12302;SDS011;6214;48.012;7.862;2022-10-16T11:15:32;11.40;;;1.30;;
12302;SDS011;6214;48.012;7.862;2022-10-16T11:18:06;19.17;;;4.90;;
12302;SDS011;6214;48.012;7.862;2022-10-16T11:20:46;11.50;;;1.30;;
12302;SDS011;6214;48.012;7.862;2022-10-16T11:23:26;13.15;;;1.42;;
12302;SDS011;6214;48.012;7.862;2022-10-16T11:26:16;17.43;;;3.87;;
12302;SDS011;6214;48.012;7.862;2022-10-16T11:28:50;11.82;;;1.50;;
12302;SDS011;6214;48.012;7.862;2022-10-16T11:31:38;12.57;;;1.20;;
12302;SDS011;6214;48.012;7.862;2022-10-16T11:36:53;12.38;;;1.10;;
12302;SDS011;6214;48.012;7.862;2022-10-16T11:39:34;11.75;;;1.25;;
12302;SDS011;6214;48.012;7.862;2022-10-16T11:47:25;12.50;;;1.40;;
12302;SDS011;6214;48.012;7.862;2022-10-16T11:52:44;11.00;;;1.10;;
12302;SDS011;6214;48.012;7.862;2022-10-16T11:55:20;11.35;;;1.23;;
12302;SDS011;6214;48.012;7.862;2022-10-16T11:57:51;11.63;;;1.33;;
12302;SDS011;6214;48.012;7.862;2022-10-16T12:00:27;12.10;;;1.30;;
12302;SDS011;6214;48.012;7.862;2022-10-16T12:03:17;11.40;;;1.20;;
12302;SDS011;6214;48.012;7.862;2022-10-16T12:08:41;11.47;;;1.33;;
12302;SDS011;6214;48.012;7.862;2022-10-16T12:16:58;11.35;;;1.10;;
12302;SDS011;6214;48.012;7.862;2022-10-16T12:19:27;11.30;;;1.20;;
12302;SDS011;6214;48.012;7.862;2022-10-16T12:21:56;11.60;;;1.10;;
12302;SDS011;6214;48.012;7.862;2022-10-16T12:27:20;11.50;;;1.20;;
12302;SDS011;6214;48.012;7.862;2022-10-16T12:29:55;11.68;;;1.10;;
12302;SDS011;6214;48.012;7.862;2022-10-16T12:35:19;12.02;;;1.30;;
12302;SDS011;6214;48.012;7.862;2022-10-16T12:37:54;11.77;;;1.40;;
12302;SDS011;6214;48.012;7.862;2022-10-16T12:40:31;12.23;;;1.67;;
12302;SDS011;6214;48.012;7.862;2022-10-16T12:43:10;11.80;;;1.40;;
12302;SDS011;6214;48.012;7.862;2022-10-16T12:48:32;11.60;;;1.17;;
12302;SDS011;6214;48.012;7.862;2022-10-16T12:56:43;11.15;;;1.10;;
12302;SDS011;6214;48.012;7.862;2022-10-16T13:05:26;11.40;;;1.30;;
12302;SDS011;6214;48.012;7.862;2022-10-16T13:10:25;12.53;;;1.60;;
12302;SDS011;6214;48.012;7.862;2022-10-16T13:21:42;11.30;;;1.40;;
12302;SDS011;6214;48.012;7.862;2022-10-16T13:24:17;11.70;;;1.20;;
12302;SDS011;6214;48.012;7.862;2022-10-16T13:26:56;11.60;;;1.20;;
12302;SDS011;6214;48.012;7.862;2022-10-16T13:29:37;11.30;;;1.30;;
12302;SDS011;6214;48.012;7.862;2022-10-16T13:32:08;12.80;;;1.27;;
12302;SDS011;6214;48.012;7.862;2022-10-16T13:34:45;12.10;;;1.30;;
12302;SDS011;6214;48.012;7.862;2022-10-16T13:37:18;11.30;;;1.30;;
12302;SDS011;6214;48.012;7.862;2022-10-16T13:39:47;11.10;;;1.20;;
12302;SDS011;6214;48.012;7.862;2022-10-16T13:44:48;11.15;;;1.30;;
12302;SDS011;6214;48.012;7.862;2022-10-16T13:47:18;11.55;;;1.27;;
12302;SDS011;6214;48.012;7.862;2022-10-16T13:49:45;12.30;;;1.10;;
12302;SDS011;6214;48.012;7.862;2022-10-16T13:52:19;11.50;;;1.30;;
12302;SDS011;6214;48.012;7.862;2022-10-16T13:54:47;12.27;;;1.30;;
12302;SDS011;6214;48.012;7.862;2022-10-16T13:57:15;11.50;;;1.38;;
12302;SDS011;6214;48.012;7.862;2022-10-16T13:59:52;11.90;;;1.30;;
12302;SDS011;6214;48.012;7.862;2022-10-16T14:02:33;11.85;;;1.38;;
12302;SDS011;6214;48.012;7.862;2022-10-16T14:05:03;11.48;;;1.40;;
12302;SDS011;6214;48.012;7.862;2022-10-16T14:07:35;12.35;;;1.20;;
12302;SDS011;6214;48.012;7.862;2022-10-16T14:10:04;11.48;;;1.30;;
12302;SDS011;6214;48.012;7.862;2022-10-16T14:12:33;12.30;;;1.30;;
12302;SDS011;6214;48.012;7.862;2022-10-16T14:15:01;12.00;;;1.38;;
12302;SDS011;6214;48.012;7.862;2022-10-16T14:17:29;11.02;;;1.20;;
12302;SDS011;6214;48.012;7.862;2022-10-16T14:19:59;11.70;;;1.20;;
12302;SDS011;6214;48.012;7.862;2022-10-16T14:22:33;11.10;;;1.30;;
12302;SDS011;6214;48.012;7.862;2022-10-16T14:25:02;11.90;;;1.50;;
12302;SDS011;6214;48.012;7.862;2022-10-16T14:30:50;11.23;;;1.30;;
12302;SDS011;6214;48.012;7.862;2022-10-16T14:38:41;11.23;;;1.30;;
12302;SDS011;6214;48.012;7.862;2022-10-16T14:41:14;11.40;;;1.10;;
12302;SDS011;6214;48.012;7.862;2022-10-16T14:43:42;11.57;;;1.40;;
12302;SDS011;6214;48.012;7.862;2022-10-16T14:46:18;13.70;;;1.50;;
12302;SDS011;6214;48.012;7.862;2022-10-16T14:48:48;11.30;;;1.40;;
12302;SDS011;6214;48.012;7.862;2022-10-16T14:51:18;11.15;;;1.38;;
12302;SDS011;6214;48.012;7.862;2022-10-16T14:53:46;11.20;;;1.40;;
12302;SDS011;6214;48.012;7.862;2022-10-16T14:56:18;14.10;;;1.40;;
12302;SDS011;6214;48.012;7.862;2022-10-16T14:58:47;11.20;;;1.20;;
12302;SDS011;6214;48.012;7.862;2022-10-16T15:01:16;11.90;;;1.20;;
12302;SDS011;6214;48.012;7.862;2022-10-16T15:03:44;11.13;;;1.45;;
12302;SDS011;6214;48.012;7.862;2022-10-16T15:06:12;11.30;;;1.20;;
12302;SDS011;6214;48.012;7.862;2022-10-16T15:08:41;11.88;;;1.33;;
12302;SDS011;6214;48.012;7.862;2022-10-16T15:11:15;11.82;;;1.70;;
12302;SDS011;6214;48.012;7.862;2022-10-16T15:13:44;11.65;;;1.27;;
12302;SDS011;6214;48.012;7.862;2022-10-16T15:16:13;11.57;;;1.50;;
12302;SDS011;6214;48.012;7.862;2022-10-16T15:18:41;13.30;;;1.30;;
12302;SDS011;6214;48.012;7.862;2022-10-16T15:21:31;11.90;;;1.33;;
12302;SDS011;6214;48.012;7.862;2022-10-16T15:23:58;13.00;;;1.40;;
12302;SDS011;6214;48.012;7.862;2022-10-16T15:26:26;12.88;;;1.35;;
12302;SDS011;6214;48.012;7.862;2022-10-16T15:28:54;11.75;;;1.38;;
12302;SDS011;6214;48.012;7.862;2022-10-16T15:31:21;11.90;;;1.40;;
12302;SDS011;6214;48.012;7.862;2022-10-16T15:33:50;12.20;;;1.73;;
12302;SDS011;6214;48.012;7.862;2022-10-16T15:36:30;12.02;;;1.60;;
12302;SDS011;6214;48.012;7.862;2022-10-16T15:39:03;12.00;;;1.50;;
12302;SDS011;6214;48.012;7.862;2022-10-16T15:41:31;11.68;;;1.30;;
12302;SDS011;6214;48.012;7.862;2022-10-16T15:43:58;12.50;;;1.40;;
12302;SDS011;6214;48.012;7.862;2022-10-16T15:46:25;13.07;;;1.35;;
12302;SDS011;6214;48.012;7.862;2022-10-16T15:48:55;11.90;;;1.25;;
12302;SDS011;6214;48.012;7.862;2022-10-16T15:51:24;12.68;;;1.40;;
12302;SDS011;6214;48.012;7.862;2022-10-16T15:53:55;12.13;;;1.48;;
12302;SDS011;6214;48.012;7.862;2022-10-16T15:56:23;12.38;;;1.30;;
12302;SDS011;6214;48.012;7.862;2022-10-16T15:58:52;11.80;;;1.45;;
12302;SDS011;6214;48.012;7.862;2022-10-16T16:01:20;12.38;;;1.58;;
12302;SDS011;6214;48.012;7.862;2022-10-16T16:03:48;12.93;;;1.65;;
12302;SDS011;6214;48.012;7.862;2022-10-16T16:06:20;14.15;;;1.50;;
12302;SDS011;6214;48.012;7.862;2022-10-16T16:08:48;13.40;;;1.50;;
12302;SDS011;6214;48.012;7.862;2022-10-16T16:11:15;12.27;;;1.37;;
12302;SDS011;6214;48.012;7.862;2022-10-16T16:13:43;13.63;;;1.52;;
12302;SDS011;6214;48.012;7.862;2022-10-16T16:16:11;12.00;;;1.40;;
12302;SDS011;6214;48.012;7.862;2022-10-16T16:18:40;15.60;;;1.75;;
12302;SDS011;6214;48.012;7.862;2022-10-16T16:21:09;12.45;;;1.77;;
12302;SDS011;6214;48.012;7.862;2022-10-16T16:23:37;13.88;;;1.63;;
12302;SDS011;6214;48.012;7.862;2022-10-16T16:26:05;11.70;;;1.80;;
12302;SDS011;6214;48.012;7.862;2022-10-16T16:28:36;12.73;;;1.80;;
12302;SDS011;6214;48.012;7.862;2022-10-16T16:31:04;13.98;;;2.22;;
12302;SDS011;6214;48.012;7.862;2022-10-16T16:33:31;12.60;;;2.00;;
12302;SDS011;6214;48.012;7.862;2022-10-16T16:35:59;14.00;;;2.65;;
12302;SDS011;6214;48.012;7.862;2022-10-16T16:38:29;15.68;;;3.00;;
12302;SDS011;6214;48.012;7.862;2022-10-16T16:40:56;16.73;;;3.15;;
12302;SDS011;6214;48.012;7.862;2022-10-16T16:43:23;14.88;;;3.20;;
12302;SDS011;6214;48.012;7.862;2022-10-16T16:45:51;15.80;;;3.40;;
12302;SDS011;6214;48.012;7.862;2022-10-16T16:48:18;13.63;;;3.05;;
12302;SDS011;6214;48.012;7.862;2022-10-16T16:50:46;14.52;;;2.80;;
12302;SDS011;6214;48.012;7.862;2022-10-16T16:53:13;14.43;;;2.67;;
12302;SDS011;6214;48.012;7.862;2022-10-16T16:55:40;13.90;;;2.50;;
12302;SDS011;6214;48.012;7.862;2022-10-16T16:58:07;14.00;;;2.05;;
12302;SDS011;6214;48.012;7.862;2022-10-16T17:00:34;12.65;;;2.03;;
12302;SDS011;6214;48.012;7.862;2022-10-16T17:03:01;14.00;;;2.30;;
12302;SDS011;6214;48.012;7.862;2022-10-16T17:05:28;12.70;;;2.10;;
12302;SDS011;6214;48.012;7.862;2022-10-16T17:07:55;12.10;;;2.10;;
12302;SDS011;6214;48.012;7.862;2022-10-16T17:10:22;15.50;;;2.30;;
12302;SDS011;6214;48.012;7.862;2022-10-16T17:12:49;15.40;;;2.10;;
12302;SDS011;6214;48.012;7.862;2022-10-16T17:15:16;13.40;;;2.40;;